createdAt,value
2023-04-17T00:00:07.375Z,12.30
2023-04-17T00:02:40.384Z,12.32
2023-04-17T00:05:09.302Z,12.23
2023-04-17T00:07:41.525Z,12.25
2023-04-17T00:10:11.792Z,12.14
2023-04-17T00:12:39.923Z,12.15
2023-04-17T00:15:08.635Z,12.12
2023-04-17T00:17:36.858Z,12.08
2023-04-17T00:20:10.544Z,11.93
2023-04-17T00:22:39.405Z,11.98
2023-04-17T00:25:07.953Z,11.82
2023-04-17T00:30:18.350Z,11.80
2023-04-17T00:32:46.258Z,11.84
2023-04-17T00:35:14.903Z,11.76
2023-04-17T00:37:42.839Z,11.82
2023-04-17T00:40:11.704Z,11.86
2023-04-17T00:42:39.483Z,11.87
2023-04-17T00:45:11.063Z,11.74
2023-04-17T00:47:40.240Z,11.75
2023-04-17T00:50:08.793Z,11.66
2023-04-17T00:52:36.807Z,11.70
2023-04-17T00:55:05.408Z,11.76
2023-04-17T00:57:34.734Z,11.78
2023-04-17T01:00:02.902Z,11.76
2023-04-17T01:02:31.339Z,11.76
2023-04-17T01:04:59.398Z,11.71
2023-04-17T01:07:28.226Z,11.50
2023-04-17T01:09:56.672Z,11.66
2023-04-17T01:12:25.517Z,11.72
2023-04-17T01:14:55.662Z,11.73
2023-04-17T01:17:26.526Z,11.70
2023-04-17T01:19:55.894Z,11.63
2023-04-17T01:22:23.920Z,11.69
2023-04-17T01:24:56.235Z,11.75
2023-04-17T01:27:26.237Z,11.66
2023-04-17T01:29:54.154Z,11.69
2023-04-17T01:32:22.386Z,11.67
2023-04-17T01:34:50.977Z,11.32
2023-04-17T01:37:19.830Z,11.14
2023-04-17T01:39:47.896Z,11.17
2023-04-17T01:42:16.136Z,11.08
2023-04-17T01:44:44.992Z,11.13
2023-04-17T01:47:13.485Z,11.14
2023-04-17T01:49:41.350Z,11.30
2023-04-17T01:52:09.353Z,11.47
2023-04-17T01:54:37.495Z,11.39
2023-04-17T01:57:05.504Z,11.28
2023-04-17T01:59:33.563Z,11.22
2023-04-17T02:02:01.759Z,11.28
2023-04-17T02:04:30.005Z,11.20
2023-04-17T02:06:58.086Z,11.20
2023-04-17T02:09:27.212Z,11.16
2023-04-17T02:11:55.216Z,11.13
2023-04-17T02:14:23.315Z,11.15
2023-04-17T02:16:51.359Z,11.39
2023-04-17T02:19:19.237Z,11.54
2023-04-17T02:21:47.204Z,11.68
2023-04-17T02:24:15.098Z,11.44
2023-04-17T02:26:43.419Z,11.38
2023-04-17T02:29:14.030Z,11.48
2023-04-17T02:31:43.148Z,11.59
2023-04-17T02:34:12.427Z,11.68
2023-04-17T02:36:41.689Z,11.60
2023-04-17T02:39:10.284Z,11.50
2023-04-17T02:41:40.423Z,11.37
2023-04-17T02:44:10.077Z,11.44
2023-04-17T02:46:38.859Z,11.17
2023-04-17T02:49:07.183Z,11.36
2023-04-17T02:51:35.161Z,11.20
2023-04-17T02:55:40.065Z,10.99
2023-04-17T02:58:15.954Z,10.93
2023-04-17T03:00:44.071Z,10.84
2023-04-17T03:03:16.462Z,10.70
2023-04-17T03:05:44.901Z,10.62
2023-04-17T03:08:13.144Z,10.61
2023-04-17T03:10:47.194Z,10.66
2023-04-17T03:13:15.127Z,10.57
2023-04-17T03:15:42.949Z,10.56
2023-04-17T03:18:10.940Z,10.58
2023-04-17T03:20:39.024Z,10.63
2023-04-17T03:23:07.057Z,10.80
2023-04-17T03:25:35.125Z,10.84
2023-04-17T03:28:03.359Z,11.03
2023-04-17T03:30:34.178Z,11.15
2023-04-17T03:33:06.745Z,11.14
2023-04-17T03:35:34.873Z,11.28
2023-04-17T03:38:07.038Z,11.24
2023-04-17T03:40:35.726Z,11.28
2023-04-17T03:43:03.733Z,11.38
2023-04-17T03:45:33.149Z,11.35
2023-04-17T03:48:02.118Z,11.38
2023-04-17T03:50:30.588Z,11.24
2023-04-17T03:52:58.516Z,11.27
2023-04-17T03:55:28.563Z,11.27
2023-04-17T03:57:56.658Z,11.32
2023-04-17T04:00:26.387Z,11.42
2023-04-17T04:03:00.236Z,11.34
2023-04-17T04:05:34.487Z,11.28
2023-04-17T04:08:02.788Z,11.12
2023-04-17T04:10:46.032Z,11.03
2023-04-17T04:13:19.521Z,11.14
2023-04-17T04:15:53.399Z,11.29
2023-04-17T04:18:23.773Z,11.26
2023-04-17T04:20:51.706Z,11.27
2023-04-17T04:23:28.388Z,11.24
2023-04-17T04:26:02.006Z,11.15
2023-04-17T04:28:48.110Z,11.21
2023-04-17T04:31:38.093Z,11.30
2023-04-17T04:34:06.673Z,11.33
2023-04-17T04:36:36.527Z,11.20
2023-04-17T04:39:20.551Z,11.31
2023-04-17T04:41:50.792Z,11.31
2023-04-17T04:44:21.280Z,11.20
2023-04-17T04:46:53.300Z,11.05
2023-04-17T04:49:21.747Z,10.90
2023-04-17T04:51:49.835Z,11.14
2023-04-17T04:54:18.181Z,11.15
2023-04-17T04:56:51.844Z,11.29
2023-04-17T04:59:20.034Z,11.38
2023-04-17T05:01:56.466Z,11.36
2023-04-17T05:04:25.076Z,11.24
2023-04-17T05:06:57.392Z,10.95
2023-04-17T05:09:25.365Z,10.87
2023-04-17T05:11:57.282Z,11.03
2023-04-17T05:14:25.490Z,10.95
2023-04-17T05:16:55.508Z,10.93
2023-04-17T05:19:24.129Z,10.94
2023-04-17T05:21:59.890Z,10.87
2023-04-17T05:24:28.563Z,10.92
2023-04-17T05:26:57.398Z,10.99
2023-04-17T05:29:26.223Z,11.20
2023-04-17T05:31:58.043Z,11.16
2023-04-17T05:34:49.635Z,11.09
2023-04-17T05:37:21.427Z,11.04
2023-04-17T05:39:49.414Z,11.05
2023-04-17T05:42:18.018Z,11.24
2023-04-17T05:44:46.388Z,11.17
2023-04-17T05:47:14.352Z,11.07
2023-04-17T05:49:43.419Z,11.03
2023-04-17T05:52:12.080Z,10.92
2023-04-17T05:54:44.372Z,11.06
2023-04-17T05:57:12.639Z,11.17
2023-04-17T05:59:41.130Z,11.36
2023-04-17T06:02:11.219Z,11.47
2023-04-17T06:04:39.806Z,11.07
2023-04-17T06:07:08.484Z,11.19
2023-04-17T06:09:38.194Z,11.39
2023-04-17T06:12:06.821Z,11.47
2023-04-17T06:14:35.058Z,11.53
2023-04-17T06:17:07.690Z,11.56
2023-04-17T06:19:36.303Z,11.30
2023-04-17T06:22:04.734Z,11.41
2023-04-17T06:24:33.302Z,11.44
2023-04-17T06:27:02.487Z,11.56
2023-04-17T06:29:31.350Z,11.50
2023-04-17T06:31:59.813Z,11.42
2023-04-17T06:34:28.315Z,11.34
2023-04-17T06:36:57.885Z,11.59
2023-04-17T06:39:26.229Z,11.85
2023-04-17T06:41:56.555Z,11.87
2023-04-17T06:44:29.123Z,11.80
2023-04-17T06:47:00.429Z,11.75
2023-04-17T06:49:33.712Z,11.91
2023-04-17T06:52:01.980Z,12.02
2023-04-17T06:54:30.130Z,11.64
2023-04-17T06:56:58.187Z,11.65
2023-04-17T06:59:26.477Z,11.86
2023-04-17T07:01:55.137Z,12.12
2023-04-17T07:04:23.919Z,11.92
2023-04-17T07:06:52.429Z,11.91
2023-04-17T07:09:20.747Z,12.34
2023-04-17T07:11:49.524Z,12.41
2023-04-17T07:14:17.620Z,12.37
2023-04-17T07:16:46.838Z,12.46
2023-04-17T07:19:15.378Z,12.64
2023-04-17T07:21:44.260Z,12.88
2023-04-17T07:24:12.457Z,12.86
2023-04-17T07:26:40.878Z,12.83
2023-04-17T07:29:09.650Z,12.52
2023-04-17T07:31:39.356Z,12.34
2023-04-17T07:34:08.041Z,12.27
2023-04-17T07:36:37.546Z,12.38
2023-04-17T07:39:07.588Z,12.39
2023-04-17T07:41:36.441Z,12.24
2023-04-17T07:44:06.230Z,12.44
2023-04-17T07:46:34.802Z,12.48
2023-04-17T07:49:03.370Z,12.80
2023-04-17T07:51:32.097Z,12.90
2023-04-17T07:54:00.653Z,12.60
2023-04-17T07:56:29.301Z,12.44
2023-04-17T07:58:58.683Z,12.39
2023-04-17T08:01:28.134Z,12.26
2023-04-17T08:03:56.750Z,12.41
2023-04-17T08:06:26.504Z,12.25
2023-04-17T08:08:55.029Z,12.28
2023-04-17T08:11:23.546Z,12.20
2023-04-17T08:13:52.144Z,12.13
2023-04-17T08:16:20.647Z,12.14
2023-04-17T08:18:49.210Z,12.23
2023-04-17T08:21:17.696Z,12.04
2023-04-17T08:23:46.298Z,12.02
2023-04-17T08:26:14.878Z,11.98
2023-04-17T08:28:43.295Z,12.04
2023-04-17T08:31:11.652Z,11.94
2023-04-17T08:33:40.333Z,12.07
2023-04-17T08:36:10.211Z,12.44
2023-04-17T08:38:39.054Z,12.80
2023-04-17T08:41:13.752Z,13.02
2023-04-17T08:43:44.001Z,13.27
2023-04-17T08:46:12.745Z,13.60
2023-04-17T08:48:41.280Z,13.58
2023-04-17T08:51:09.599Z,13.58
2023-04-17T08:53:38.084Z,13.61
2023-04-17T08:56:09.078Z,13.64
2023-04-17T08:58:37.888Z,13.60
2023-04-17T09:01:16.179Z,13.52
2023-04-17T09:03:46.772Z,13.17
2023-04-17T09:06:16.570Z,13.04
2023-04-17T09:08:59.758Z,12.71
2023-04-17T09:11:28.956Z,12.21
2023-04-17T09:13:57.500Z,12.17
2023-04-17T09:16:26.084Z,12.15
2023-04-17T09:19:06.400Z,12.09
2023-04-17T09:21:35.768Z,12.02
2023-04-17T09:24:05.766Z,12.05
2023-04-17T09:26:34.488Z,12.29
2023-04-17T09:29:12.409Z,12.34
2023-04-17T09:31:43.383Z,12.40
2023-04-17T09:34:13.639Z,12.47
2023-04-17T09:36:44.054Z,12.63
2023-04-17T09:39:26.405Z,12.74
2023-04-17T09:42:10.739Z,12.74
2023-04-17T09:44:40.700Z,12.87
2023-04-17T09:47:11.712Z,13.33
2023-04-17T09:49:43.203Z,13.78
2023-04-17T09:52:12.873Z,13.87
2023-04-17T09:54:43.271Z,13.98
2023-04-17T09:57:11.908Z,14.04
2023-04-17T09:59:50.174Z,13.92
2023-04-17T10:02:20.298Z,13.43
2023-04-17T10:04:49.105Z,13.71
2023-04-17T10:07:18.232Z,14.03
2023-04-17T10:09:47.680Z,14.15
2023-04-17T10:12:19.138Z,14.15
2023-04-17T10:14:52.441Z,14.00
2023-04-17T10:17:37.581Z,13.80
2023-04-17T10:20:18.130Z,14.13
2023-04-17T10:22:49.753Z,14.12
2023-04-17T10:25:20.375Z,14.87
2023-04-17T10:28:09.271Z,15.40
2023-04-17T10:30:57.286Z,14.92
2023-04-17T10:33:26.823Z,15.09
2023-04-17T10:35:55.926Z,14.91
2023-04-17T10:38:36.544Z,15.21
2023-04-17T10:41:09.678Z,16.15
2023-04-17T10:43:42.346Z,16.45
2023-04-17T10:46:15.269Z,16.01
2023-04-17T10:48:49.991Z,15.86
2023-04-17T10:51:28.156Z,15.17
2023-04-17T10:53:59.107Z,14.94
2023-04-17T10:56:29.604Z,14.83
2023-04-17T10:59:30.371Z,15.30
2023-04-17T11:02:01.663Z,15.55
2023-04-17T11:04:32.214Z,15.97
2023-04-17T11:07:01.487Z,16.26
2023-04-17T11:09:30.376Z,16.62
2023-04-17T11:12:02.339Z,16.29
2023-04-17T11:14:31.514Z,16.71
2023-04-17T11:17:01.656Z,16.38
2023-04-17T11:19:32.478Z,15.97
2023-04-17T11:22:03.036Z,15.47
2023-04-17T11:24:32.537Z,15.47
2023-04-17T11:27:02.360Z,15.44
2023-04-17T11:29:31.222Z,15.70
2023-04-17T11:32:01.223Z,15.76
2023-04-17T11:34:31.403Z,15.87
2023-04-17T11:37:01.867Z,15.65
2023-04-17T11:39:34.428Z,15.47
2023-04-17T11:42:03.813Z,14.96
2023-04-17T11:44:32.328Z,15.09
2023-04-17T11:47:02.360Z,14.99
2023-04-17T11:49:39.367Z,15.02
2023-04-17T11:52:07.813Z,14.93
2023-04-17T11:54:38.334Z,15.19
2023-04-17T11:57:08.196Z,15.52
2023-04-17T11:59:39.074Z,15.63
2023-04-17T12:02:09.111Z,15.88
2023-04-17T12:04:40.080Z,15.44
2023-04-17T12:07:21.323Z,15.74
2023-04-17T12:09:59.038Z,15.50
2023-04-17T12:12:27.606Z,15.45
2023-04-17T12:14:56.085Z,15.01
2023-04-17T12:17:24.619Z,15.19
2023-04-17T12:19:53.860Z,15.19
2023-04-17T12:22:23.585Z,15.35
2023-04-17T12:24:52.483Z,15.38
2023-04-17T12:27:20.894Z,15.56
2023-04-17T12:29:49.385Z,15.74
2023-04-17T12:32:17.777Z,15.74
2023-04-17T12:34:47.335Z,15.68
2023-04-17T12:37:16.475Z,15.61
2023-04-17T12:39:44.941Z,15.46
2023-04-17T12:42:13.515Z,15.54
2023-04-17T12:44:42.167Z,15.64
2023-04-17T12:47:10.762Z,15.98
2023-04-17T12:49:39.108Z,16.04
2023-04-17T12:52:07.543Z,16.05
2023-04-17T12:54:36.345Z,16.06
2023-04-17T12:57:05.172Z,16.00
2023-04-17T12:59:34.428Z,15.92
2023-04-17T13:02:02.944Z,16.11
2023-04-17T13:04:31.594Z,16.27
2023-04-17T13:07:00.745Z,16.32
2023-04-17T13:09:29.201Z,16.22
2023-04-17T13:11:58.320Z,16.03
2023-04-17T13:14:26.684Z,15.83
2023-04-17T13:16:55.253Z,15.90
2023-04-17T13:19:23.941Z,16.09
2023-04-17T13:21:52.701Z,16.18
2023-04-17T13:24:20.981Z,16.12
2023-04-17T13:26:49.659Z,16.18
2023-04-17T13:29:19.510Z,16.20
2023-04-17T13:31:48.294Z,16.24
2023-04-17T13:34:16.903Z,16.23
2023-04-17T13:36:45.658Z,16.19
2023-04-17T13:39:15.359Z,15.74
2023-04-17T13:41:43.969Z,15.38
2023-04-17T13:44:12.944Z,15.19
2023-04-17T13:46:42.020Z,15.31
2023-04-17T13:49:11.388Z,15.47
2023-04-17T13:51:40.086Z,15.43
2023-04-17T13:54:10.363Z,15.38
2023-04-17T13:56:39.017Z,15.35
2023-04-17T13:59:07.826Z,15.01
2023-04-17T14:01:36.480Z,15.09
2023-04-17T14:04:05.409Z,15.22
2023-04-17T14:06:35.217Z,15.55
2023-04-17T14:09:03.723Z,15.64
2023-04-17T14:11:32.333Z,15.53
2023-04-17T14:14:01.021Z,15.42
2023-04-17T14:16:29.842Z,15.50
2023-04-17T14:19:12.774Z,15.74
2023-04-17T14:21:43.208Z,15.85
2023-04-17T14:24:11.644Z,16.12
2023-04-17T14:26:40.301Z,16.39
2023-04-17T14:29:11.122Z,16.57
2023-04-17T14:31:39.883Z,16.62
2023-04-17T14:34:08.286Z,16.51
2023-04-17T14:36:36.960Z,16.36
2023-04-17T14:39:05.352Z,16.18
2023-04-17T14:41:34.611Z,15.79
2023-04-17T14:44:03.268Z,15.87
2023-04-17T14:46:32.331Z,15.44
2023-04-17T14:49:01.106Z,15.32
2023-04-17T14:51:30.650Z,15.25
2023-04-17T14:53:59.584Z,15.28
2023-04-17T14:56:27.874Z,14.94
2023-04-17T14:58:56.229Z,14.69
2023-04-17T15:01:24.563Z,14.58
2023-04-17T15:03:53.252Z,14.53
2023-04-17T15:06:22.159Z,14.46
2023-04-17T15:08:50.492Z,14.58
2023-04-17T15:11:19.565Z,14.54
2023-04-17T15:13:48.338Z,14.60
2023-04-17T15:16:16.953Z,14.48
2023-04-17T15:18:45.474Z,14.59
2023-04-17T15:21:16.883Z,14.40
2023-04-17T15:23:45.865Z,14.32
2023-04-17T15:26:14.128Z,14.33
2023-04-17T15:28:42.581Z,14.45
2023-04-17T15:31:11.269Z,14.44
2023-04-17T15:33:39.682Z,14.46
2023-04-17T15:36:08.249Z,14.55
2023-04-17T15:38:36.689Z,14.43
2023-04-17T15:41:05.164Z,14.38
2023-04-17T15:43:33.655Z,14.43
2023-04-17T15:46:03.858Z,14.16
2023-04-17T15:48:32.392Z,13.86
2023-04-17T15:51:03.752Z,13.77
2023-04-17T15:53:32.780Z,13.75
2023-04-17T15:56:01.150Z,13.67
2023-04-17T15:58:29.646Z,13.66
2023-04-17T16:00:58.012Z,13.53
2023-04-17T16:03:26.720Z,13.36
2023-04-17T16:05:55.121Z,13.13
2023-04-17T16:08:23.697Z,13.33
2023-04-17T16:10:52.378Z,13.27
2023-04-17T16:13:21.361Z,13.24
2023-04-17T16:15:50.506Z,13.02
2023-04-17T16:18:18.942Z,12.96
2023-04-17T16:20:47.376Z,12.83
2023-04-17T16:23:16.061Z,12.88
2023-04-17T16:25:44.393Z,12.83
2023-04-17T16:28:12.840Z,12.51
2023-04-17T16:30:41.508Z,12.41
2023-04-17T16:33:10.085Z,12.12
2023-04-17T16:35:38.541Z,12.07
2023-04-17T16:38:07.380Z,12.21
2023-04-17T16:40:35.955Z,12.17
2023-04-17T16:43:04.377Z,12.07
2023-04-17T16:45:32.852Z,12.04
2023-04-17T16:48:01.658Z,12.01
2023-04-17T16:50:30.301Z,11.96
2023-04-17T16:52:58.757Z,11.80
2023-04-17T16:55:27.196Z,11.70
2023-04-17T16:57:56.088Z,11.59
2023-04-17T17:00:24.568Z,11.38
2023-04-17T17:02:53.132Z,11.33
2023-04-17T17:05:22.031Z,11.16
2023-04-17T17:07:50.659Z,11.11
2023-04-17T17:10:19.221Z,10.96
2023-04-17T17:12:47.561Z,10.92
2023-04-17T17:15:16.223Z,11.00
2023-04-17T17:17:44.683Z,11.02
2023-04-17T17:20:13.505Z,11.05
2023-04-17T17:22:41.934Z,11.08
2023-04-17T17:25:10.372Z,11.18
2023-04-17T17:27:39.131Z,11.24
2023-04-17T17:30:07.722Z,11.33
2023-04-17T17:32:36.209Z,11.43
2023-04-17T17:35:04.833Z,11.50
2023-04-17T17:37:33.256Z,11.60
2023-04-17T17:40:03.641Z,11.55
2023-04-17T17:42:32.210Z,11.59
2023-04-17T17:45:00.731Z,11.58
2023-04-17T17:47:29.496Z,11.56
2023-04-17T17:49:58.111Z,11.53
2023-04-17T17:52:26.493Z,11.62
2023-04-17T17:54:55.125Z,11.55
2023-04-17T17:57:23.780Z,11.39
2023-04-17T17:59:52.330Z,11.43
2023-04-17T18:02:21.485Z,11.28
2023-04-17T18:04:49.819Z,11.30
2023-04-17T18:07:18.181Z,11.33
2023-04-17T18:09:48.394Z,11.58
2023-04-17T18:12:18.808Z,11.67
2023-04-17T18:14:47.139Z,11.77
2023-04-17T18:17:15.798Z,11.87
2023-04-17T18:19:44.640Z,11.83
2023-04-17T18:22:12.916Z,11.95
2023-04-17T18:24:41.531Z,11.95
2023-04-17T18:27:10.015Z,11.85
2023-04-17T18:29:38.570Z,11.83
2023-04-17T18:32:07.134Z,11.89
2023-04-17T18:34:35.628Z,11.85
2023-04-17T18:37:04.448Z,11.87
2023-04-17T18:39:33.300Z,11.94
2023-04-17T18:42:02.170Z,11.98
2023-04-17T18:44:30.944Z,11.99
2023-04-17T18:46:59.455Z,11.98
2023-04-17T18:49:28.064Z,11.98
2023-04-17T18:51:56.656Z,11.96
2023-04-17T18:54:25.062Z,11.86
2023-04-17T18:56:53.424Z,11.89
2023-04-17T18:59:21.933Z,11.74
2023-04-17T19:01:50.613Z,11.70
2023-04-17T19:04:19.264Z,11.81
2023-04-17T19:06:47.851Z,11.74
2023-04-17T19:09:16.287Z,11.85
2023-04-17T19:11:44.713Z,11.72
2023-04-17T19:14:13.321Z,11.76
2023-04-17T19:16:42.865Z,11.82
2023-04-17T19:19:13.951Z,11.76
2023-04-17T19:21:42.601Z,11.64
2023-04-17T19:24:11.221Z,11.47
2023-04-17T19:26:39.646Z,11.46
2023-04-17T19:29:08.089Z,11.59
2023-04-17T19:31:37.941Z,11.50
2023-04-17T19:34:07.419Z,11.30
2023-04-17T19:36:36.287Z,11.14
2023-04-17T19:39:05.366Z,11.22
2023-04-17T19:41:33.724Z,11.29
2023-04-17T19:44:02.343Z,11.27
2023-04-17T19:46:30.993Z,11.52
2023-04-17T19:48:58.997Z,11.61
2023-04-17T19:51:27.956Z,11.68
2023-04-17T19:53:56.732Z,11.72
2023-04-17T19:56:25.083Z,11.77
2023-04-17T19:58:53.927Z,11.78
2023-04-17T20:01:22.442Z,11.73
2023-04-17T20:03:51.760Z,11.79
2023-04-17T20:06:20.347Z,11.84
2023-04-17T20:08:50.417Z,11.90
2023-04-17T20:11:18.927Z,11.95
2023-04-17T20:13:47.094Z,11.90
2023-04-17T20:16:16.416Z,11.91
2023-04-17T20:18:46.078Z,11.92
2023-04-17T20:21:14.362Z,11.87
2023-04-17T20:23:42.407Z,11.92
2023-04-17T20:26:11.565Z,11.85
2023-04-17T20:28:39.654Z,11.80
2023-04-17T20:31:08.091Z,11.87
2023-04-17T20:33:36.063Z,11.84
2023-04-17T20:36:04.576Z,11.91
2023-04-17T20:38:32.647Z,11.94
2023-04-17T20:41:01.086Z,11.89
2023-04-17T20:43:29.664Z,11.91
2023-04-17T20:45:59.172Z,11.91
2023-04-17T20:48:27.717Z,11.83
2023-04-17T20:50:55.798Z,11.87
2023-04-17T20:53:23.616Z,11.84
2023-04-17T20:55:52.100Z,11.88
2023-04-17T20:58:20.308Z,11.85
2023-04-17T21:03:22.772Z,11.76
2023-04-17T21:05:50.897Z,11.81
2023-04-17T21:08:18.826Z,11.80
2023-04-17T21:10:46.764Z,11.84
2023-04-17T21:13:14.818Z,11.77
2023-04-17T21:15:42.910Z,11.75
2023-04-17T21:18:10.991Z,11.74
2023-04-17T21:20:39.593Z,11.74
2023-04-17T21:23:07.693Z,11.77
2023-04-17T21:25:36.055Z,11.82
2023-04-17T21:28:04.203Z,11.79
2023-04-17T21:30:32.294Z,11.81
2023-04-17T21:33:00.377Z,11.80
2023-04-17T21:35:28.384Z,11.75
2023-04-17T21:37:56.307Z,11.78
2023-04-17T21:40:25.310Z,11.79
2023-04-17T21:42:53.956Z,11.79
2023-04-17T21:45:21.945Z,11.82
2023-04-17T21:47:50.105Z,11.81
2023-04-17T21:50:18.248Z,11.76
2023-04-17T21:52:46.127Z,11.71
2023-04-17T21:55:14.098Z,11.67
2023-04-17T21:57:42.078Z,11.73
2023-04-17T22:00:12.824Z,11.68
2023-04-17T22:02:40.812Z,11.69
2023-04-17T22:05:09.081Z,11.66
2023-04-17T22:07:47.362Z,11.62
2023-04-17T22:10:24.323Z,11.61
2023-04-17T22:12:52.450Z,11.56
2023-04-17T22:15:20.384Z,11.54
2023-04-17T22:17:48.568Z,11.56
2023-04-17T22:20:16.795Z,11.57
2023-04-17T22:22:47.292Z,11.59
2023-04-17T22:25:15.265Z,11.51
2023-04-17T22:27:43.144Z,11.57
2023-04-17T22:30:11.351Z,11.59
2023-04-17T22:32:39.531Z,11.33
2023-04-17T22:35:08.256Z,11.25
2023-04-17T22:37:36.258Z,11.35
2023-04-17T22:40:05.021Z,11.36
2023-04-17T22:42:32.909Z,11.27
2023-04-17T22:45:01.536Z,11.29
2023-04-17T22:47:29.404Z,11.16
2023-04-17T22:49:57.799Z,10.96
2023-04-17T22:52:25.600Z,10.84
2023-04-17T22:54:54.191Z,10.79
2023-04-17T22:57:21.997Z,10.93
2023-04-17T22:59:49.866Z,11.08
2023-04-17T23:02:17.867Z,11.13
2023-04-17T23:04:46.112Z,11.18
2023-04-17T23:07:13.967Z,11.11
2023-04-17T23:09:42.314Z,11.03
2023-04-17T23:12:10.140Z,11.10
2023-04-17T23:14:37.971Z,11.11
2023-04-17T23:17:06.772Z,11.04
2023-04-17T23:19:34.671Z,11.02
2023-04-17T23:22:02.672Z,11.12
2023-04-17T23:24:34.800Z,11.17
2023-04-17T23:27:03.011Z,11.28
2023-04-17T23:29:30.911Z,11.29
2023-04-17T23:31:58.807Z,11.26
2023-04-17T23:34:28.196Z,11.26
2023-04-17T23:36:56.244Z,11.14
2023-04-17T23:39:24.795Z,11.14
2023-04-17T23:41:52.661Z,11.06
2023-04-17T23:44:20.839Z,10.95
2023-04-17T23:46:48.757Z,10.95
2023-04-17T23:49:19.910Z,11.03
2023-04-17T23:51:47.795Z,10.93
2023-04-17T23:54:15.791Z,11.01
2023-04-17T23:56:43.997Z,10.91
2023-04-17T23:59:11.967Z,11.00
